Lakeview Park, Washington
Current Conditions -  °F | °C
As of 6:53 PM on Saturday 22 Nov 2014 (Local Time) from KEPH Reporting Station
Clear Clear  
Wind Chill: 35°   Ceiling: Unl
Heat Index: 41°   Visibility: 10mi
Dew Point: 30°   Wind: 10mph
Humidity: 65%   Direction: 160°SSE
Pressure: 29.87"   Gusts: NA
Location:  47.4314°N, 119.485°W
Report Text: KEPH 230253Z AUTO 16009KT 10SM CLR 05/M01 A2987 RMK AO2 SLP126 T00501011 51027
Loading
Personal Weather Stations






























Interactive Weather Map New forecast layout! Learn more

10-Day Weather Forecast

Advertisements
Track Severe Weather on mobile